Skip Navigation Links Skip Navigation Links

Current Weather

Raleigh-Durham Intl, Raleigh, N.C.

For information only: do not use for flight planning or navigation.
Latest weather
Observation time Sunday, September 20, 2020 9:51 AM EDT
Local time Sunday, September 20, 2020 10:03 AM EDT
Flight conditions Visual Meteorological Conditions
Winds
Wind direction North-Northeast (30°)
Wind speed 15 mph
Wind gusting to 18 mph
Visibility 10 mi.
Sky condition
Ceiling unlimited
Cloud layer few clouds 4,000 ft.
Cloud layer scattered clouds 25,000 ft.
Temperature 60°F
Dewpoint 47°F
Altimeter 30.38 in.Hg
Derived measurements
Relative humidity 62%
Density altitude 141 ft.
Sea-level pressure 30.37 in.Hg
Remarks
Automated weather observing station with precipitation discriminator.
METAR KRDU 201351Z 03013G16KT 10SM FEW040 SCT250 16/08 A3038 RMK AO2 SLP286 T01560083

Settings

Location code

InnerDrive.Weather 4.0.6770.0 Release CLR 4.0.30319.42000
Copyright ©2018 Inner Drive Technology. All rights reserved. Portions Copyright ©1986-2018 David Braverman.

Find weather

Site navigation


Skip Navigation Links

Place info

Page info

PayPal - The safer, easier way to pay online!

Return home.

Copyright ©2020 Inner Drive Technology. Purveyors of fine, hand-crafted computer software. Page printed 2020-09-20T14:03:10 UTC.